Time;durP1;ratioP1;P1;durP2;ratioP2;P2;SDS_P1;SDS_P2;PMS_P1;PMS_P2;Temp;Humidity;BMP_temperature;BMP_pressure;BME280_temperature;BME280_humidity;BME280_pressure;Samples;Min_cycle;Max_cycle;Signal;HPM_P1;HPM_P2
2021/03/17 00:01:36;;;;;;;18.10;7.60;;;;;;;2.22;86.14;100340.73;124478;1110;23064;-59
2021/03/17 00:04:06;;;;;;;19.43;6.90;;;;;;;2.23;85.44;100337.59;124281;1111;26400;-59
2021/03/17 00:06:36;;;;;;;21.20;7.70;;;;;;;2.22;85.92;100344.28;124374;1112;26801;-58
2021/03/17 00:09:06;;;;;;;20.50;6.47;;;;;;;2.24;86.21;100332.83;124462;1110;27902;-59
2021/03/17 00:11:36;;;;;;;19.93;7.07;;;;;;;2.23;85.53;100331.30;124827;1112;23077;-58
2021/03/17 00:14:05;;;;;;;19.73;6.77;;;;;;;2.23;85.88;100334.83;124939;1111;26046;-58
2021/03/17 00:16:35;;;;;;;23.65;7.00;;;;;;;2.25;85.94;100326.92;124910;1111;23194;-59
2021/03/17 00:19:04;;;;;;;18.77;6.93;;;;;;;2.26;85.67;100333.97;124676;1111;23061;-58
2021/03/17 00:21:33;;;;;;;19.87;6.97;;;;;;;2.28;86.06;100331.58;124835;1111;23026;-58
2021/03/17 00:24:03;;;;;;;20.55;7.30;;;;;;;2.30;85.63;100328.39;124867;1111;23083;-60
2021/03/17 00:26:32;;;;;;;19.63;6.83;;;;;;;2.28;85.87;100331.58;124864;1111;23289;-59
2021/03/17 00:29:01;;;;;;;16.97;5.93;;;;;;;2.29;85.91;100335.12;124899;1111;27918;-60
2021/03/17 00:31:30;;;;;;;16.93;5.43;;;;;;;2.27;85.92;100330.03;124713;1110;24606;-55
2021/03/17 00:34:00;;;;;;;18.80;6.60;;;;;;;2.27;86.12;100323.74;124832;1112;23073;-60
2021/03/17 00:36:29;;;;;;;17.43;6.87;;;;;;;2.27;85.99;100329.25;124900;1110;23066;-59
2021/03/17 00:38:57;;;;;;;18.15;5.75;;;;;;;2.28;86.04;100328.82;124860;1111;23049;-58
2021/03/17 00:41:26;;;;;;;19.40;7.17;;;;;;;2.27;85.88;100327.28;124843;1111;24468;-56
2021/03/17 00:43:55;;;;;;;19.40;7.13;;;;;;;2.27;85.60;100324.53;124908;1111;24612;-59
2021/03/17 00:46:24;;;;;;;20.57;7.43;;;;;;;2.28;85.75;100314.27;124898;1110;23017;-59
2021/03/17 00:48:55;;;;;;;18.73;6.17;;;;;;;2.28;85.60;100322.53;124774;1111;23091;-59
2021/03/17 00:51:26;;;;;;;16.85;6.10;;;;;;;2.28;85.45;100326.06;124943;1112;23077;-59
2021/03/17 00:53:55;;;;;;;16.50;6.20;;;;;;;2.28;85.92;100325.28;124876;1111;27759;-59
2021/03/17 00:56:25;;;;;;;18.27;6.67;;;;;;;2.27;86.25;100319.02;124888;1111;23014;-58
2021/03/17 00:58:54;;;;;;;18.97;5.90;;;;;;;2.26;85.98;100322.95;124753;1111;23056;-58
2021/03/17 01:01:24;;;;;;;18.93;6.07;;;;;;;2.26;86.21;100325.71;124839;1112;23033;-58
2021/03/17 01:03:53;;;;;;;14.67;5.17;;;;;;;2.25;86.38;100324.17;124801;1111;23015;-59
2021/03/17 01:06:22;;;;;;;18.17;7.17;;;;;;;2.24;86.17;100319.84;124891;1112;24029;-58
2021/03/17 01:08:51;;;;;;;17.37;6.13;;;;;;;2.26;85.95;100327.68;124875;1112;23103;-58
2021/03/17 01:11:19;;;;;;;21.65;8.25;;;;;;;2.24;86.04;100317.09;124925;1111;24779;-59
2021/03/17 01:13:49;;;;;;;15.80;5.17;;;;;;;2.25;85.93;100326.14;124961;1111;23027;-59
2021/03/17 01:16:19;;;;;;;22.33;7.33;;;;;;;2.25;86.45;100320.62;124888;1111;22987;-64
2021/03/17 01:18:48;;;;;;;19.17;5.90;;;;;;;2.23;86.57;100318.30;125007;1112;24188;-61
2021/03/17 01:21:17;;;;;;;20.00;6.25;;;;;;;2.23;85.76;100321.06;124809;1111;22982;-59
2021/03/17 01:23:46;;;;;;;19.80;6.73;;;;;;;2.22;85.86;100316.73;124884;1111;24638;-59
2021/03/17 01:26:15;;;;;;;20.57;6.47;;;;;;;2.23;86.67;100325.78;124827;1111;23079;-57
2021/03/17 01:28:44;;;;;;;17.50;6.50;;;;;;;2.21;86.67;100317.95;124860;1112;23219;-59
2021/03/17 01:31:14;;;;;;;20.20;7.00;;;;;;;2.22;86.00;100324.21;124863;1111;23136;-58
2021/03/17 01:33:43;;;;;;;17.25;5.70;;;;;;;2.21;86.18;100325.42;124767;1111;23007;-58
2021/03/17 01:36:12;;;;;;;18.77;6.63;;;;;;;2.21;86.08;100314.41;124851;1111;23001;-58
2021/03/17 01:38:42;;;;;;;18.20;7.60;;;;;;;2.20;86.36;100312.84;124768;1111;23050;-58
2021/03/17 01:41:11;;;;;;;21.35;7.35;;;;;;;2.20;86.46;100313.62;124800;1110;23170;-58
2021/03/17 01:43:40;;;;;;;21.20;7.77;;;;;;;2.20;86.17;100316.38;124839;1110;23032;-61
2021/03/17 01:46:09;;;;;;;19.40;7.77;;;;;;;2.22;86.18;100321.45;124821;1111;23023;-58
2021/03/17 01:48:38;;;;;;;23.50;8.07;;;;;;;2.22;86.59;100318.70;124885;1111;23073;-58
2021/03/17 01:51:09;;;;;;;23.43;8.13;;;;;;;2.23;86.85;100320.27;124838;1110;23022;-58
2021/03/17 01:53:38;;;;;;;;;;;;;;;2.23;86.07;100320.27;125083;1110;23027;-58
2021/03/17 01:56:08;;;;;;;19.37;6.90;;;;;;;2.22;86.65;100313.98;124788;1110;21500;-60
2021/03/17 01:58:37;;;;;;;;;;;;;;;2.22;86.46;100313.20;124924;1111;23064;-59
2021/03/17 02:01:06;;;;;;;22.93;6.67;;;;;;;2.21;86.50;100309.69;124951;1112;21684;-59
2021/03/17 02:03:35;;;;;;;22.57;8.03;;;;;;;2.22;86.99;100313.20;124790;1111;22994;-57
2021/03/17 02:06:05;;;;;;;20.10;8.30;;;;;;;2.21;86.60;100314.41;124907;1111;23019;-60
2021/03/17 02:08:36;;;;;;;22.48;7.65;;;;;;;2.21;86.97;100311.66;124872;1112;27227;-59
2021/03/17 02:11:06;;;;;;;21.20;8.13;;;;;;;2.22;86.93;100307.69;124879;1111;23218;-58
2021/03/17 02:14:18;;;;;;;19.73;7.77;;;;;;;2.21;87.24;100315.20;124896;1111;23080;-57
2021/03/17 02:16:54;;;;;;;19.60;7.40;;;;;;;2.21;87.00;100315.20;124913;1110;23037;-59
2021/03/17 02:20:03;;;;;;;22.20;7.70;;;;;;;2.18;86.99;100302.25;124741;1112;23168;-58
2021/03/17 02:22:43;;;;;;;21.63;6.70;;;;;;;2.17;86.78;100308.94;124867;1110;27213;-58
2021/03/17 02:25:28;;;;;;;28.43;9.50;;;;;;;2.17;86.66;100311.70;124810;1112;23030;-58
2021/03/17 02:28:09;;;;;;;21.77;8.20;;;;;;;2.18;86.76;100313.27;124593;1111;24178;-58
2021/03/17 02:30:53;;;;;;;23.15;8.68;;;;;;;2.19;86.96;100306.55;124953;1111;23050;-58
2021/03/17 02:33:39;;;;;;;23.17;9.53;;;;;;;2.21;86.45;100314.41;124797;1112;25568;-58
2021/03/17 02:36:12;;;;;;;22.20;7.87;;;;;;;2.21;86.94;100317.16;124903;1110;22990;-57
2021/03/17 02:38:48;;;;;;;22.90;9.40;;;;;;;2.19;87.06;100309.30;124779;1112;23202;-58
2021/03/17 02:41:22;;;;;;;26.85;10.10;;;;;;;2.19;86.62;100317.56;124726;1110;24388;-58
2021/03/17 02:43:56;;;;;;;31.13;11.53;;;;;;;2.19;87.08;100312.05;124714;1112;26106;-58
2021/03/17 02:46:28;;;;;;;23.23;9.97;;;;;;;2.20;87.06;100318.34;124910;1112;23060;-58
2021/03/17 02:49:05;;;;;;;27.07;10.63;;;;;;;2.19;86.93;100316.80;124840;1111;23084;-59
2021/03/17 02:51:37;;;;;;;34.05;12.20;;;;;;;2.18;86.85;100312.48;124836;1112;24361;-58
2021/03/17 02:54:10;;;;;;;27.80;11.83;;;;;;;2.16;87.30;100312.91;124802;1110;23020;-58
2021/03/17 02:56:45;;;;;;;31.67;13.43;;;;;;;2.18;86.84;100316.02;124939;1112;23071;-59
2021/03/17 02:59:19;;;;;;;29.43;12.50;;;;;;;2.18;87.35;100312.48;124942;1111;23228;-58
2021/03/17 03:01:52;;;;;;;32.63;13.47;;;;;;;2.16;86.93;100314.87;124945;1112;23037;-58
2021/03/17 03:04:23;;;;;;;35.47;12.13;;;;;;;2.15;86.91;100319.60;124779;1111;23195;-58
2021/03/17 03:06:55;;;;;;;27.13;11.83;;;;;;;2.14;86.94;100320.81;124841;1111;23083;-59
2021/03/17 03:09:27;;;;;;;26.33;11.03;;;;;;;2.13;87.27;100315.73;124869;1111;23012;-58
2021/03/17 03:11:58;;;;;;;31.10;11.90;;;;;;;2.12;87.14;100316.92;124831;1111;23170;-57
2021/03/17 03:14:29;;;;;;;25.17;9.60;;;;;;;2.11;87.61;100312.63;124791;1111;26405;-59
2021/03/17 03:17:01;;;;;;;26.63;9.97;;;;;;;2.06;87.42;100313.88;124964;1111;28971;-58
2021/03/17 03:19:32;;;;;;;25.93;9.87;;;;;;;2.05;87.56;100317.05;124932;1112;26559;-58
2021/03/17 03:22:03;;;;;;;26.93;10.93;;;;;;;2.03;86.85;100309.20;124877;1111;23067;-58
2021/03/17 03:24:33;;;;;;;25.72;9.03;;;;;;;2.03;87.65;100313.95;124921;1112;22993;-58
2021/03/17 03:27:03;;;;;;;27.98;9.60;;;;;;;2.01;87.35;100314.34;124956;1111;23217;-58
2021/03/17 03:29:34;;;;;;;26.93;9.03;;;;;;;1.99;87.10;100316.73;125134;1110;26427;-58
2021/03/17 03:32:02;;;;;;;;;;;;;;;1.98;87.48;100315.20;124965;1110;23070;-58
2021/03/17 03:34:32;;;;;;;25.93;9.80;;;;;;;1.97;86.96;100318.34;125004;1110;24187;-57
2021/03/17 03:37:01;;;;;;;27.47;10.13;;;;;;;1.98;87.61;100317.95;124938;1110;23018;-58
2021/03/17 03:39:30;;;;;;;28.30;9.73;;;;;;;1.98;86.93;100323.45;124736;1112;23129;-58
2021/03/17 03:41:59;;;;;;;22.43;8.00;;;;;;;1.98;87.63;100319.92;124799;1112;23014;-58
2021/03/17 03:44:28;;;;;;;19.10;7.20;;;;;;;1.97;87.42;100326.61;124842;1111;23184;-58
2021/03/17 03:46:58;;;;;;;25.20;7.53;;;;;;;1.93;86.92;100331.39;124861;1112;23219;-56
2021/03/17 03:49:27;;;;;;;23.40;8.75;;;;;;;1.91;87.20;100323.56;124920;1111;23003;-58
2021/03/17 03:52:02;;;;;;;28.57;7.63;;;;;;;1.90;86.94;100323.99;124847;1111;26421;-58
2021/03/17 03:54:38;;;;;;;28.13;9.30;;;;;;;1.85;87.17;100319.73;125117;1110;23174;-58
2021/03/17 03:57:15;;;;;;;26.00;9.27;;;;;;;1.84;87.58;100322.91;124884;1111;26382;-57
2021/03/17 03:59:48;;;;;;;26.30;9.97;;;;;;;1.81;87.34;100319.02;124898;1111;23065;-60
2021/03/17 04:02:24;;;;;;;26.17;9.43;;;;;;;1.79;87.65;100315.90;124839;1111;27420;-58
2021/03/17 04:04:56;;;;;;;20.77;7.77;;;;;;;1.77;87.09;100315.54;124955;1111;23007;-56
2021/03/17 04:07:26;;;;;;;26.80;10.20;;;;;;;1.76;87.58;100316.72;125153;1110;23014;-58
2021/03/17 04:10:00;;;;;;;29.10;8.90;;;;;;;1.74;87.55;100321.87;124844;1111;23026;-58
2021/03/17 04:12:29;;;;;;;29.53;11.07;;;;;;;1.73;87.68;100314.82;124918;1110;24704;-58
2021/03/17 04:15:00;;;;;;;31.47;11.33;;;;;;;1.70;87.82;100315.64;124912;1112;26472;-58
2021/03/17 04:17:36;;;;;;;37.27;12.17;;;;;;;1.70;87.62;100320.39;125060;1111;27304;-56
2021/03/17 04:20:11;;;;;;;27.70;10.07;;;;;;;1.69;87.75;100313.31;124840;1110;23067;-57
2021/03/17 04:22:43;;;;;;;35.00;13.23;;;;;;;1.69;87.75;100316.06;124882;1110;23074;-59
2021/03/17 04:25:17;;;;;;;32.00;12.33;;;;;;;1.68;87.69;100312.53;124936;1112;22981;-60
2021/03/17 04:27:50;;;;;;;31.30;12.00;;;;;;;1.68;87.65;100318.03;124799;1111;22991;-58
2021/03/17 04:30:23;;;;;;;32.13;11.70;;;;;;;1.69;87.82;100325.11;124966;1111;23030;-58
2021/03/17 04:32:54;;;;;;;26.70;10.97;;;;;;;1.68;87.92;100309.77;124930;1112;23068;-58
2021/03/17 04:35:24;;;;;;;33.60;12.17;;;;;;;1.67;87.99;100315.70;125030;1111;23087;-58
2021/03/17 04:37:55;;;;;;;32.48;13.48;;;;;;;1.68;87.43;100318.03;124876;1111;23265;-59
2021/03/17 04:40:26;;;;;;;32.60;12.53;;;;;;;1.68;87.65;100325.53;124950;1111;23056;-57
2021/03/17 04:42:56;;;;;;;31.47;11.33;;;;;;;1.68;87.51;100325.53;124864;1111;27563;-58
2021/03/17 04:45:26;;;;;;;34.20;11.75;;;;;;;1.69;87.81;100325.11;124918;1110;26605;-58
2021/03/17 04:47:56;;;;;;;29.65;10.98;;;;;;;1.68;87.31;100325.53;124943;1110;23080;-58
2021/03/17 04:50:28;;;;;;;33.80;11.20;;;;;;;1.67;88.19;100332.22;124841;1112;23026;-58
2021/03/17 04:52:58;;;;;;;27.87;10.90;;;;;;;1.66;87.94;100320.42;124912;1111;23073;-58
2021/03/17 04:55:27;;;;;;;32.20;11.63;;;;;;;1.66;87.97;100328.68;124938;1111;26399;-58
2021/03/17 04:57:58;;;;;;;30.45;11.15;;;;;;;1.65;87.65;100325.14;125004;1112;22997;-59
2021/03/17 05:00:27;;;;;;;;;;;;;;;1.63;87.90;100329.53;124870;1111;24051;-59
2021/03/17 05:02:58;;;;;;;24.23;8.10;;;;;;;1.59;88.39;100326.81;125044;1111;21604;-58
2021/03/17 05:05:31;;;;;;;24.63;8.23;;;;;;;1.59;88.22;100329.56;124783;1112;22992;-58
2021/03/17 05:08:03;;;;;;;27.73;9.23;;;;;;;1.58;87.96;100328.02;124980;1110;23344;-58
2021/03/17 05:10:33;;;;;;;23.87;7.93;;;;;;;1.61;88.21;100342.92;124996;1112;23062;-55
2021/03/17 05:13:02;;;;;;;26.87;9.58;;;;;;;1.58;87.83;100333.52;124934;1111;23015;-58
2021/03/17 05:15:32;;;;;;;25.40;8.50;;;;;;;1.59;88.43;100339.81;124476;1110;28015;-60
2021/03/17 05:18:02;;;;;;;29.90;9.63;;;;;;;1.59;88.21;100339.81;124487;1110;24673;-63
2021/03/17 05:20:32;;;;;;;25.55;8.68;;;;;;;1.59;87.75;100339.81;124637;1112;23156;-59
2021/03/17 05:23:03;;;;;;;26.05;7.67;;;;;;;1.58;88.40;100341.78;124810;1111;26401;-59
2021/03/17 05:25:34;;;;;;;20.95;6.50;;;;;;;1.59;88.57;100339.81;124923;1111;23223;-60
2021/03/17 05:28:05;;;;;;;26.13;8.93;;;;;;;1.58;88.54;100346.50;124814;1112;23219;-59
2021/03/17 05:30:37;;;;;;;26.53;9.13;;;;;;;1.58;88.14;100346.50;125053;1111;26427;-59
2021/03/17 05:33:09;;;;;;;27.37;10.77;;;;;;;1.58;88.38;100344.53;124676;1111;26392;-60
2021/03/17 05:35:39;;;;;;;29.20;9.80;;;;;;;1.60;88.20;100346.86;124773;1112;24462;-57
2021/03/17 05:38:08;;;;;;;28.70;8.43;;;;;;;1.58;88.45;100347.28;124706;1110;23041;-58
2021/03/17 05:40:38;;;;;;;26.77;9.47;;;;;;;1.57;88.71;100348.45;124682;1111;24979;-57
2021/03/17 05:43:08;;;;;;;30.03;9.50;;;;;;;1.58;88.37;100346.50;124559;1110;23042;-60
2021/03/17 05:45:38;;;;;;;24.57;8.83;;;;;;;1.58;88.60;100354.75;124601;1111;23077;-57
2021/03/17 05:48:09;;;;;;;31.37;10.70;;;;;;;1.56;88.92;100354.38;124666;1111;23077;-58
2021/03/17 05:50:38;;;;;;;;;;;;;;;1.55;88.78;100361.86;124727;1111;23344;-56
2021/03/17 05:53:09;;;;;;;25.17;9.17;;;;;;;1.53;89.13;100352.48;124764;1112;21614;-60
2021/03/17 05:55:37;;;;;;;;;;;;;;;1.51;88.34;100357.62;124834;1110;23087;-56
2021/03/17 05:58:07;;;;;;;29.33;9.77;;;;;;;1.50;89.02;100362.34;124692;1112;21588;-58
2021/03/17 06:00:37;;;;;;;30.35;10.15;;;;;;;1.50;88.88;100362.34;124741;1112;23069;-56
2021/03/17 06:03:07;;;;;;;30.60;10.20;;;;;;;1.51;89.15;100366.63;124747;1112;24670;-54
2021/03/17 06:05:36;;;;;;;28.92;9.58;;;;;;;1.51;89.40;100368.63;124708;1110;23069;-57
2021/03/17 06:08:08;;;;;;;31.43;9.80;;;;;;;1.50;89.49;100370.59;124447;1111;23151;-57
2021/03/17 06:10:38;;;;;;;32.57;10.27;;;;;;;1.50;89.36;100369.80;125662;1110;23996;-58
2021/03/17 06:13:11;;;;;;;27.27;9.20;;;;;;;1.51;88.74;100371.38;124723;1111;23014;-58
2021/03/17 06:15:43;;;;;;;27.50;9.30;;;;;;;1.51;89.49;100379.63;124704;1112;23015;-55
2021/03/17 06:18:21;;;;;;;30.63;11.40;;;;;;;1.52;88.80;100384.71;124720;1110;23006;-55
2021/03/17 06:20:52;;;;;;;29.73;11.23;;;;;;;1.53;88.97;100377.24;124835;1111;23160;-57
2021/03/17 06:23:21;;;;;;;39.90;13.97;;;;;;;1.54;89.56;100381.53;124694;1111;22972;-54
2021/03/17 06:25:51;;;;;;;40.30;13.97;;;;;;;1.55;89.42;100380.36;124914;1111;23027;-57
2021/03/17 06:28:22;;;;;;;34.00;13.87;;;;;;;1.59;89.87;100387.34;124687;1111;23094;-56
2021/03/17 06:30:54;;;;;;;37.13;12.37;;;;;;;1.61;88.97;100392.45;124875;1112;22964;-57
2021/03/17 06:33:24;;;;;;;37.20;13.10;;;;;;;1.62;89.42;100389.28;124685;1112;23161;-57
2021/03/17 06:36:10;;;;;;;37.33;13.70;;;;;;;1.64;89.48;100392.39;124822;1111;23392;-57
2021/03/17 06:38:39;;;;;;;36.00;13.20;;;;;;;1.68;88.96;100392.34;124806;1112;24687;-54
2021/03/17 06:41:09;;;;;;;37.70;16.23;;;;;;;1.72;89.45;100384.05;124755;1112;23190;-57
2021/03/17 06:43:40;;;;;;;37.13;13.07;;;;;;;1.75;89.38;100406.00;124736;1112;24632;-59
2021/03/17 06:46:11;;;;;;;35.17;13.27;;;;;;;1.75;89.26;100403.25;124616;1111;26761;-57
2021/03/17 06:48:41;;;;;;;40.93;13.70;;;;;;;1.76;89.31;100401.29;124661;1112;23217;-57
2021/03/17 06:51:13;;;;;;;27.15;7.62;;;;;;;1.78;88.99;100404.41;124582;1112;24411;-57
2021/03/17 06:53:45;;;;;;;34.00;11.50;;;;;;;1.78;89.68;100407.91;124519;1110;23193;-58
2021/03/17 06:56:17;;;;;;;37.33;13.67;;;;;;;1.79;88.87;100412.23;124549;1111;23180;-57
2021/03/17 06:58:48;;;;;;;34.43;12.43;;;;;;;1.82;89.24;100407.88;124955;1111;23219;-58
2021/03/17 07:01:35;;;;;;;34.87;13.70;;;;;;;1.82;89.25;100413.39;124949;1112;25508;-57
2021/03/17 07:04:06;;;;;;;39.67;14.70;;;;;;;1.81;88.97;100407.09;124862;1112;23011;-57
2021/03/17 07:06:37;;;;;;;38.90;14.50;;;;;;;1.83;89.24;100409.42;124756;1110;27364;-54
2021/03/17 07:09:19;;;;;;;32.73;12.43;;;;;;;1.83;89.78;100407.45;124701;1112;23226;-57
2021/03/17 07:11:50;;;;;;;34.30;14.20;;;;;;;1.84;89.69;100406.28;124710;1111;25660;-57
2021/03/17 07:14:26;;;;;;;31.40;11.50;;;;;;;1.86;89.99;100405.85;124605;1111;24556;-57
2021/03/17 07:16:57;;;;;;;38.07;12.50;;;;;;;1.87;89.93;100410.94;124789;1110;23223;-57
2021/03/17 07:19:38;;;;;;;33.75;11.70;;;;;;;1.88;89.77;100415.27;124442;1110;23019;-60
2021/03/17 07:22:09;;;;;;;31.15;11.30;;;;;;;1.88;90.16;100418.02;128139;1111;25086;-58
2021/03/17 07:24:39;;;;;;;33.33;11.57;;;;;;;1.90;90.02;100417.59;127362;1111;23083;-57
2021/03/17 07:27:16;;;;;;;38.02;12.88;;;;;;;1.91;90.23;100421.88;124131;1110;23229;-55
2021/03/17 07:30:06;;;;;;;38.57;12.73;;;;;;;1.92;90.11;100432.50;128152;1111;22902;-59
2021/03/17 07:32:55;;;;;;;23.60;8.23;;;;;;;1.94;89.98;100432.08;128115;1110;24224;-59
2021/03/17 07:35:30;;;;;;;28.63;9.60;;;;;;;1.95;90.20;100430.88;128194;1111;22805;-60
2021/03/17 07:38:10;;;;;;;31.60;9.03;;;;;;;1.98;89.48;100432.80;127003;1110;22978;-60
2021/03/17 07:40:43;;;;;;;25.10;8.70;;;;;;;2.00;90.24;100441.42;123860;1111;23029;-57
2021/03/17 07:43:14;;;;;;;32.20;10.67;;;;;;;2.00;89.72;100439.45;126396;1110;26883;-58
2021/03/17 07:45:44;;;;;;;26.45;9.90;;;;;;;1.98;89.57;100439.09;125495;1111;23022;-60
2021/03/17 07:48:14;;;;;;;30.00;9.63;;;;;;;1.98;90.10;100441.06;128165;1111;23017;-60
2021/03/17 07:50:44;;;;;;;26.02;9.73;;;;;;;1.96;90.07;100440.70;128193;1110;22851;-59
2021/03/17 07:53:19;;;;;;;29.25;9.55;;;;;;;1.96;89.73;100437.95;128160;1111;24076;-60
2021/03/17 07:55:53;;;;;;;29.83;8.67;;;;;;;1.96;90.13;100440.70;128200;1111;22945;-60
2021/03/17 07:58:23;;;;;;;36.30;10.97;;;;;;;1.97;89.73;100436.73;128249;1110;22798;-58
2021/03/17 08:00:53;;;;;;;37.40;11.73;;;;;;;1.98;89.77;100444.60;128184;1111;22975;-59
2021/03/17 08:03:22;;;;;;;30.45;10.50;;;;;;;1.99;90.29;100434.34;128158;1110;22905;-58
2021/03/17 08:05:51;;;;;;;34.47;12.47;;;;;;;2.02;90.17;100442.58;128138;1112;22859;-60
2021/03/17 08:08:24;;;;;;;34.93;12.90;;;;;;;2.04;89.60;100444.91;128191;1111;22960;-60
2021/03/17 08:10:53;;;;;;;36.77;12.90;;;;;;;2.05;90.03;100438.97;128176;1111;24098;-59
2021/03/17 08:13:23;;;;;;;36.30;12.03;;;;;;;2.10;89.94;100449.53;128180;1110;23481;-59
2021/03/17 08:15:52;;;;;;;38.00;13.40;;;;;;;2.11;89.70;100450.32;128215;1110;23817;-60
2021/03/17 08:18:42;;;;;;;36.70;12.63;;;;;;;2.12;89.60;100452.64;128184;1111;22809;-60
2021/03/17 08:21:13;;;;;;;40.67;14.20;;;;;;;2.13;89.87;100459.70;127770;1111;31360;-62
2021/03/17 08:23:44;;;;;;;39.95;13.65;;;;;;;2.15;90.05;100451.80;128186;1111;22834;-58
2021/03/17 08:26:35;;;;;;;40.33;13.67;;;;;;;2.15;89.54;100449.05;128209;1111;22979;-60
2021/03/17 08:29:13;;;;;;;43.90;15.98;;;;;;;2.18;89.86;100453.73;128173;1111;22846;-60
2021/03/17 08:31:52;;;;;;;39.87;14.70;;;;;;;2.22;89.34;100454.45;128139;1111;23008;-58
2021/03/17 08:34:29;;;;;;;40.30;15.40;;;;;;;2.25;89.97;100463.86;128168;1111;22795;-60
2021/03/17 08:36:59;;;;;;;41.00;14.53;;;;;;;2.29;89.28;100459.87;128179;1111;23993;-58
2021/03/17 08:39:48;;;;;;;37.75;13.78;;;;;;;2.32;89.13;100461.77;128162;1111;22941;-58
2021/03/17 08:42:29;;;;;;;47.43;16.37;;;;;;;2.35;89.64;100460.16;128174;1110;22848;-58
2021/03/17 08:45:00;;;;;;;43.13;14.90;;;;;;;2.38;89.80;100464.81;128175;1110;23708;-58
2021/03/17 08:47:33;;;;;;;48.70;18.70;;;;;;;2.41;89.19;100462.03;128154;1110;22868;-59
2021/03/17 08:50:20;;;;;;;47.80;19.23;;;;;;;2.43;89.11;100462.39;128201;1111;22867;-60
2021/03/17 08:52:51;;;;;;;47.00;18.60;;;;;;;2.47;88.87;100462.32;128138;1111;24021;-60
2021/03/17 08:55:22;;;;;;;45.63;16.70;;;;;;;2.53;88.94;100465.37;128195;1111;22840;-58
2021/03/17 08:57:54;;;;;;;;;;;;;;;2.57;89.57;100469.62;128202;1112;22891;-61
2021/03/17 09:00:51;;;;;;;46.60;17.80;;;;;;;2.61;88.83;100475.10;128213;1111;22078;-59
2021/03/17 09:03:45;;;;;;;54.77;21.53;;;;;;;2.66;89.11;100477.36;128127;1110;22827;-58
2021/03/17 09:06:17;;;;;;;53.10;21.77;;;;;;;2.70;88.88;100478.08;128185;1111;22997;-65
2021/03/17 09:08:52;;;;;;;52.63;18.87;;;;;;;2.74;88.62;100478.80;128189;1110;22893;-60
2021/03/17 09:11:58;;;;;;;45.43;19.53;;;;;;;2.76;88.92;100477.18;128181;1111;23384;-60
2021/03/17 09:14:35;;;;;;;56.13;23.50;;;;;;;2.80;88.42;100482.62;128175;1111;22913;-60
2021/03/17 09:17:23;;;;;;;50.97;22.43;;;;;;;2.83;88.30;100473.53;128166;1111;22851;-60
2021/03/17 09:19:57;;;;;;;54.30;22.97;;;;;;;2.88;88.79;100476.56;128215;1110;23460;-60
2021/03/17 09:22:36;;;;;;;49.53;20.17;;;;;;;2.92;88.50;100484.77;128159;1110;25049;-61
2021/03/17 09:25:23;;;;;;;55.63;22.33;;;;;;;2.96;88.78;100482.75;128169;1111;24269;-59
2021/03/17 09:27:57;;;;;;;60.63;22.67;;;;;;;3.00;88.19;100483.47;128128;1111;22891;-58
2021/03/17 09:30:28;;;;;;;51.67;22.57;;;;;;;3.04;88.80;100484.18;128198;1111;22873;-60
2021/03/17 09:33:08;;;;;;;52.63;24.63;;;;;;;3.09;88.18;100489.98;128179;1111;22809;-60
2021/03/17 09:35:39;;;;;;;60.73;26.30;;;;;;;3.15;88.35;100485.53;128183;1111;22883;-60
2021/03/17 09:38:10;;;;;;;53.70;22.42;;;;;;;3.22;88.28;100490.14;128180;1110;22922;-61
2021/03/17 09:40:44;;;;;;;54.53;24.30;;;;;;;3.25;88.00;100483.76;128188;1110;23534;-61
2021/03/17 09:43:41;;;;;;;56.47;23.57;;;;;;;3.29;88.46;100487.22;128187;1111;22922;-60
2021/03/17 09:46:22;;;;;;;58.03;25.00;;;;;;;3.35;88.19;100484.77;127866;1113;22847;-60
2021/03/17 09:48:57;;;;;;;59.40;24.80;;;;;;;3.40;88.03;100492.54;127907;1113;23025;-59
2021/03/17 09:51:29;;;;;;;55.37;24.40;;;;;;;3.43;87.61;100486.97;127851;1114;22922;-61
2021/03/17 09:54:02;;;;;;;53.57;22.80;;;;;;;3.46;87.73;100491.63;127855;1113;22948;-60
2021/03/17 09:56:38;;;;;;;58.30;26.07;;;;;;;3.48;87.24;100497.50;127834;1114;22922;-60
2021/03/17 09:59:21;;;;;;;51.87;23.47;;;;;;;3.47;86.89;100495.95;127813;1113;23087;-61
2021/03/17 10:01:52;;;;;;;65.27;27.00;;;;;;;3.46;86.66;100499.13;127833;1114;23691;-61
2021/03/17 10:04:23;;;;;;;71.90;32.30;;;;;;;3.48;87.30;100494.73;127894;1113;22853;-61
2021/03/17 10:06:53;;;;;;;65.17;26.77;;;;;;;3.50;87.28;100503.38;127871;1113;22870;-60
2021/03/17 10:09:25;;;;;;;69.73;29.77;;;;;;;3.52;87.02;100498.20;127906;1114;22908;-60
2021/03/17 10:12:01;;;;;;;72.40;29.60;;;;;;;3.50;86.70;100514.41;127864;1114;22875;-60
2021/03/17 10:14:31;;;;;;;61.03;23.73;;;;;;;3.48;86.63;100514.06;127865;1113;22831;-60
2021/03/17 10:17:02;;;;;;;63.00;27.55;;;;;;;3.43;86.72;100511.81;127866;1112;22867;-60
2021/03/17 10:19:33;;;;;;;79.57;32.17;;;;;;;3.38;86.41;100514.27;127218;1113;23161;-61
2021/03/17 10:22:04;;;;;;;82.97;34.43;;;;;;;3.35;86.72;100521.43;128013;1111;22939;-60
2021/03/17 10:24:41;;;;;;;85.70;32.63;;;;;;;3.32;86.29;100530.54;128158;1110;27813;-61
2021/03/17 10:27:13;;;;;;;73.30;29.47;;;;;;;3.28;86.74;100532.59;128186;1111;23016;-61
2021/03/17 10:29:44;;;;;;;81.13;32.30;;;;;;;3.26;86.48;100532.23;128214;1111;23025;-61
2021/03/17 10:32:17;;;;;;;84.63;33.83;;;;;;;3.23;86.70;100530.30;128175;1110;22847;-62
2021/03/17 10:34:47;;;;;;;83.73;32.03;;;;;;;3.23;86.43;100539.37;128226;1110;23253;-61
2021/03/17 10:37:20;;;;;;;69.40;28.15;;;;;;;3.19;86.69;100532.35;128169;1110;22868;-61
2021/03/17 10:39:50;;;;;;;75.37;30.37;;;;;;;3.15;86.60;100532.42;128189;1111;23338;-62
2021/03/17 10:42:20;;;;;;;;;;;;;;;3.12;86.25;100540.77;128225;1110;22897;-61
2021/03/17 10:45:04;;;;;;;54.93;20.87;;;;;;;3.10;86.51;100538.41;128212;1110;22074;-59
2021/03/17 10:47:34;;;;;;;66.90;25.83;;;;;;;3.08;86.41;100535.30;128203;1110;22786;-61
2021/03/17 10:50:05;;;;;;;67.78;25.02;;;;;;;3.06;86.60;100540.45;128193;1110;23516;-61
2021/03/17 10:52:35;;;;;;;64.77;26.13;;;;;;;3.10;86.08;100545.93;128189;1110;22826;-62
2021/03/17 10:55:10;;;;;;;;;;;;;;;3.12;85.96;100532.50;128239;1111;23428;-60
2021/03/17 10:57:40;;;;;;;53.83;22.23;;;;;;;3.17;86.17;100540.27;128256;1112;21428;-59
2021/03/17 11:00:18;;;;;;;57.70;22.65;;;;;;;3.12;85.70;100536.02;128257;1112;22962;-60
2021/03/17 11:02:47;;;;;;;58.00;21.90;;;;;;;3.10;85.27;100540.41;128270;1110;22840;-61
2021/03/17 11:05:18;;;;;;;58.67;24.63;;;;;;;3.09;85.39;100550.66;128221;1110;22915;-61
2021/03/17 11:08:05;;;;;;;62.93;26.97;;;;;;;3.10;85.28;100548.69;128264;1111;23431;-60
2021/03/17 11:11:05;;;;;;;44.87;17.07;;;;;;;3.10;84.89;100545.93;128269;1110;22814;-61
2021/03/17 11:13:50;;;;;;;35.07;12.70;;;;;;;3.09;84.88;100545.14;128232;1112;23662;-61
2021/03/17 11:16:29;;;;;;;40.37;14.10;;;;;;;3.09;84.26;100550.66;128240;1110;23687;-60
2021/03/17 11:19:01;;;;;;;38.73;12.27;;;;;;;3.07;84.78;100549.52;128239;1110;22876;-60
2021/03/17 11:21:32;;;;;;;29.13;10.20;;;;;;;3.07;84.25;100546.76;128248;1111;22843;-61
2021/03/17 11:24:03;;;;;;;30.47;12.33;;;;;;;3.08;83.96;100548.33;128250;1111;22924;-60
2021/03/17 11:26:35;;;;;;;26.43;9.80;;;;;;;3.12;84.26;100549.80;128196;1111;24216;-61
2021/03/17 11:29:13;;;;;;;28.80;10.63;;;;;;;3.15;84.18;100554.49;128258;1110;22881;-61
2021/03/17 11:31:44;;;;;;;27.73;9.47;;;;;;;3.19;83.64;100557.97;128254;1112;22909;-61
2021/03/17 11:34:14;;;;;;;30.90;10.05;;;;;;;3.27;84.28;100548.36;128252;1111;23850;-62
2021/03/17 11:36:45;;;;;;;32.30;9.83;;;;;;;3.36;83.72;100547.81;128250;1112;22867;-59
2021/03/17 11:39:17;;;;;;;28.93;10.80;;;;;;;3.48;84.14;100560.98;126579;1111;24047;-62
2021/03/17 11:41:50;;;;;;;31.47;10.03;;;;;;;3.61;84.03;100561.92;128158;1111;22952;-59